Información del aeropuerto SCPQ

Información de pista
Frecuencias del aeropuerto
Radioayudas del aeropuerto
Información meteorológica del aeropuerto y NOTAM
ADDS - METARS form results

(0305 UTC 05 March 2021)
Data provider http://aviationweather.gov/metar/data/
 
METAR text: SCPQ 050300Z AUTO 19005KT CAVOK 10/09 Q1014
Conditions at: SCPQ (MONOPULLI , CH) observed 0300 UTC 05 March 2021
Temperature: 10.0°C (50°F)
Dewpoint: 9.0°C (48°F) [RH = 93%]
Pressure (altimeter): 29.94 inches Hg (1014.0 mb)
Winds: from the S (190 degrees) at 6 MPH (5 knots; 2.6 m/s)
Visibility: 6 or more miles (10+ km)
Ceiling: ceiling and visibility are OK
Clouds: unknown
Weather: no significant weather observed at this time